Time,TemperatureF,DewpointF,PressureIn,WindDirection,WindDirectionDegrees,WindSpeedMPH,WindSpeedGustMPH,Humidity,HourlyPrecipIn,Conditions,Clouds,dailyrainin,SolarRadiationWatts/m^2,SoftwareType,DateUTC
2013-07-20 00:02:00,75.0,73.0,-100.00,West,270,4.0,11.0,93,0.00,,,0.00,0.000000,,2013-07-20 04:02:00,
2013-07-20 00:44:00,74.0,73.0,-100.00,WNW,283,3.0,6.0,96,0.00,,,0.00,0.000000,,2013-07-20 04:44:00,
2013-07-20 00:52:00,74.0,73.0,-100.00,WNW,283,3.0,6.0,96,0.00,,,0.00,0.000000,,2013-07-20 04:52:00,
2013-07-20 01:02:00,74.0,73.0,-100.00,WNW,283,3.0,6.0,96,0.00,,,0.00,0.000000,,2013-07-20 05:02:00,
2013-07-20 01:32:00,74.0,73.0,-100.00,WNW,290,3.0,6.0,98,0.00,,,0.00,0.000000,,2013-07-20 05:32:00,
2013-07-20 01:52:00,74.0,73.0,-100.00,WNW,290,3.0,6.0,98,0.00,,,0.00,0.000000,,2013-07-20 05:52:00,
2013-07-20 02:01:00,74.0,73.0,-100.00,WNW,290,3.0,6.0,98,0.00,,,0.00,0.000000,,2013-07-20 06:01:00,
2013-07-20 02:32:00,74.0,73.0,-100.00,WNW,298,5.0,10.0,98,0.00,,,0.00,0.000000,,2013-07-20 06:32:00,
2013-07-20 02:43:00,74.0,73.0,-100.00,WNW,298,5.0,10.0,98,0.00,,,0.00,0.000000,,2013-07-20 06:43:00,
2013-07-20 02:52:00,74.0,73.0,-100.00,WNW,298,5.0,10.0,98,0.00,,,0.00,0.000000,,2013-07-20 06:52:00,
2013-07-20 03:01:00,74.0,73.0,-100.00,WNW,298,5.0,10.0,98,0.00,,,0.00,0.000000,,2013-07-20 07:01:00,
2013-07-20 03:33:00,74.0,73.0,-100.00,WNW,295,6.0,10.0,97,0.00,,,0.00,0.000000,,2013-07-20 07:33:00,
2013-07-20 03:44:00,74.0,73.0,-100.00,WNW,295,6.0,10.0,97,0.00,,,0.00,0.000000,,2013-07-20 07:44:00,
2013-07-20 03:54:00,74.0,73.0,-100.00,WNW,295,6.0,10.0,97,0.00,,,0.00,0.000000,,2013-07-20 07:54:00,
2013-07-20 04:02:00,74.0,73.0,-100.00,WNW,295,6.0,10.0,97,0.00,,,0.00,0.000000,,2013-07-20 08:02:00,
2013-07-20 04:32:00,73.0,72.0,-100.00,WNW,284,4.0,11.0,96,0.00,,,0.00,0.000000,,2013-07-20 08:32:00,
2013-07-20 04:44:00,73.0,72.0,-100.00,WNW,284,4.0,11.0,96,0.00,,,0.00,0.000000,,2013-07-20 08:44:00,
2013-07-20 04:52:00,73.0,72.0,-100.00,WNW,284,4.0,11.0,96,0.00,,,0.00,0.000000,,2013-07-20 08:52:00,
2013-07-20 05:02:00,73.0,72.0,-100.00,WNW,284,4.0,11.0,96,0.00,,,0.00,0.000000,,2013-07-20 09:02:00,
2013-07-20 05:33:00,73.0,72.0,-100.00,WNW,293,4.0,8.0,97,0.00,,,0.00,0.000000,,2013-07-20 09:33:00,
2013-07-20 05:43:00,73.0,72.0,-100.00,WNW,293,4.0,8.0,97,0.00,,,0.00,0.000000,,2013-07-20 09:43:00,
2013-07-20 05:53:00,73.0,72.0,-100.00,WNW,293,4.0,8.0,97,0.00,,,0.00,0.000000,,2013-07-20 09:53:00,
2013-07-20 06:01:00,73.0,72.0,-100.00,WNW,293,4.0,8.0,97,0.00,,,0.00,0.000000,,2013-07-20 10:01:00,
2013-07-20 06:32:00,74.0,73.0,-100.00,WNW,302,4.0,9.0,96,0.00,,,0.00,0.000000,,2013-07-20 10:32:00,
2013-07-20 06:42:00,74.0,73.0,-100.00,WNW,302,4.0,9.0,96,0.00,,,0.00,0.000000,,2013-07-20 10:42:00,
2013-07-20 06:52:00,74.0,73.0,-100.00,WNW,302,4.0,9.0,96,0.00,,,0.00,0.000000,,2013-07-20 10:52:00,
2013-07-20 07:02:00,74.0,73.0,-100.00,WNW,302,4.0,9.0,96,0.00,,,0.00,0.000000,,2013-07-20 11:02:00,
2013-07-20 07:43:00,74.0,72.0,-100.00,NW,310,6.0,14.0,94,0.00,,,0.00,9.000000,,2013-07-20 11:43:00,
2013-07-20 07:52:00,74.0,72.0,-100.00,NW,310,6.0,14.0,94,0.00,,,0.00,9.000000,,2013-07-20 11:52:00,
2013-07-20 08:01:00,74.0,72.0,-100.00,NW,310,6.0,14.0,94,0.00,,,0.00,9.000000,,2013-07-20 12:01:00,
2013-07-20 08:52:00,76.0,73.0,-100.00,NW,311,4.0,11.0,90,0.00,,,0.00,88.000000,,2013-07-20 12:52:00,
2013-07-20 09:01:00,76.0,73.0,-100.00,NW,311,4.0,11.0,90,0.00,,,0.00,88.000000,,2013-07-20 13:01:00,
2013-07-20 09:43:00,76.0,72.0,-100.00,NW,312,4.0,11.0,86,0.00,,,0.00,137.000000,,2013-07-20 13:43:00,
2013-07-20 09:53:00,76.0,72.0,-100.00,NW,312,4.0,11.0,86,0.00,,,0.00,137.000000,,2013-07-20 13:53:00,
2013-07-20 10:02:00,76.0,72.0,-100.00,NW,312,4.0,11.0,86,0.00,,,0.00,137.000000,,2013-07-20 14:02:00,
2013-07-20 10:32:00,77.0,72.0,-100.00,WNW,303,5.0,9.0,85,0.00,,,0.00,170.000000,,2013-07-20 14:32:00,
2013-07-20 10:43:00,77.0,72.0,-100.00,WNW,303,5.0,9.0,85,0.00,,,0.00,170.000000,,2013-07-20 14:43:00,
2013-07-20 10:53:00,77.0,72.0,-100.00,WNW,303,5.0,9.0,85,0.00,,,0.00,170.000000,,2013-07-20 14:53:00,
2013-07-20 11:01:00,77.0,72.0,-100.00,WNW,303,5.0,9.0,85,0.00,,,0.00,170.000000,,2013-07-20 15:01:00,
2013-07-20 11:33:00,80.0,74.0,-100.00,NW,310,5.0,11.0,81,0.00,,,0.00,328.000000,,2013-07-20 15:33:00,
2013-07-20 11:44:00,80.0,74.0,-100.00,NW,310,5.0,11.0,81,0.00,,,0.00,328.000000,,2013-07-20 15:44:00,
2013-07-20 11:53:00,80.0,74.0,-100.00,NW,310,5.0,11.0,81,0.00,,,0.00,328.000000,,2013-07-20 15:53:00,
2013-07-20 12:01:00,80.0,74.0,-100.00,NW,310,5.0,11.0,81,0.00,,,0.00,328.000000,,2013-07-20 16:01:00,
2013-07-20 12:32:00,83.0,74.0,-100.00,WNW,303,7.0,12.0,74,0.00,,,0.00,557.000000,,2013-07-20 16:32:00,
2013-07-20 12:44:00,83.0,74.0,-100.00,WNW,303,7.0,12.0,74,0.00,,,0.00,557.000000,,2013-07-20 16:44:00,
2013-07-20 12:52:00,83.0,74.0,-100.00,WNW,303,7.0,12.0,74,0.00,,,0.00,557.000000,,2013-07-20 16:52:00,
2013-07-20 13:02:00,83.0,74.0,-100.00,WNW,303,7.0,12.0,74,0.00,,,0.00,557.000000,,2013-07-20 17:02:00,
2013-07-20 13:32:00,83.0,73.0,-100.00,NW,318,7.0,13.0,73,0.00,,,0.00,482.000000,,2013-07-20 17:32:00,
2013-07-20 13:43:00,83.0,73.0,-100.00,NW,318,7.0,13.0,73,0.00,,,0.00,482.000000,,2013-07-20 17:43:00,
2013-07-20 13:53:00,83.0,73.0,-100.00,NW,318,7.0,13.0,73,0.00,,,0.00,482.000000,,2013-07-20 17:53:00,
2013-07-20 14:01:00,83.0,73.0,-100.00,NW,318,7.0,13.0,73,0.00,,,0.00,482.000000,,2013-07-20 18:01:00,
2013-07-20 14:05:00,87.0,74.0,-100.00,NW,312,7.0,16.0,66,0.00,,,0.00,820.000000,,2013-07-20 18:05:00,
2013-07-20 14:47:00,87.0,74.0,-100.00,NW,312,7.0,16.0,66,0.00,,,0.00,820.000000,,2013-07-20 18:47:00,
2013-07-20 14:59:00,87.0,74.0,-100.00,NW,312,7.0,16.0,66,0.00,,,0.00,820.000000,,2013-07-20 18:59:00,
2013-07-20 15:05:00,88.0,74.0,-100.00,NW,308,8.0,15.0,63,0.00,,,0.00,831.000000,,2013-07-20 19:05:00,
2013-07-20 15:35:00,88.0,74.0,-100.00,NW,308,8.0,15.0,63,0.00,,,0.00,831.000000,,2013-07-20 19:35:00,
2013-07-20 15:44:00,88.0,74.0,-100.00,NW,308,8.0,15.0,63,0.00,,,0.00,831.000000,,2013-07-20 19:44:00,
2013-07-20 16:05:00,88.0,73.0,-100.00,WNW,292,8.0,15.0,61,0.00,,,0.00,915.000000,,2013-07-20 20:05:00,
2013-07-20 16:35:00,88.0,73.0,-100.00,WNW,292,8.0,15.0,61,0.00,,,0.00,915.000000,,2013-07-20 20:35:00,
2013-07-20 16:47:00,88.0,73.0,-100.00,WNW,292,8.0,15.0,61,0.00,,,0.00,915.000000,,2013-07-20 20:47:00,
2013-07-20 16:58:00,88.0,73.0,-100.00,WNW,292,8.0,15.0,61,0.00,,,0.00,915.000000,,2013-07-20 20:58:00,
2013-07-20 17:36:00,87.0,71.0,-100.00,NW,304,8.0,17.0,59,0.00,,,0.00,698.000000,,2013-07-20 21:36:00,
2013-07-20 17:48:00,87.0,71.0,-100.00,NW,304,8.0,17.0,59,0.00,,,0.00,698.000000,,2013-07-20 21:48:00,
2013-07-20 18:05:00,83.0,73.0,-100.00,WNW,299,6.0,15.0,72,0.00,,,0.00,71.000000,,2013-07-20 22:05:00,
2013-07-20 18:37:00,83.0,73.0,-100.00,WNW,299,6.0,15.0,72,0.00,,,0.00,71.000000,,2013-07-20 22:37:00,
2013-07-20 18:57:00,83.0,73.0,-100.00,WNW,299,6.0,15.0,72,0.00,,,0.00,71.000000,,2013-07-20 22:57:00,
2013-07-20 19:05:00,82.0,72.0,-100.00,WNW,285,5.0,13.0,72,0.00,,,0.00,39.000000,,2013-07-20 23:05:00,
2013-07-20 19:57:00,82.0,72.0,-100.00,WNW,285,5.0,13.0,72,0.00,,,0.00,39.000000,,2013-07-20 23:57:00,
2013-07-20 20:45:00,80.0,73.0,-100.00,West,260,6.0,16.0,80,0.00,,,0.00,32.000000,,2013-07-21 00:45:00,
2013-07-20 20:56:00,80.0,73.0,-100.00,West,260,6.0,16.0,80,0.00,,,0.00,32.000000,,2013-07-21 00:56:00,
2013-07-20 21:05:00,77.0,72.0,-100.00,West,267,5.0,14.0,85,0.00,,,0.00,2.000000,,2013-07-21 01:05:00,
2013-07-20 21:49:00,-999.0,-99.9,-100.00,West,267,5.0,14.0,-999,-99.99,,,-99.99,2.000000,,2013-07-21 01:49:00,
2013-07-20 21:59:00,77.0,72.0,-100.00,West,267,5.0,14.0,85,0.00,,,0.00,2.000000,,2013-07-21 01:59:00,
2013-07-20 22:05:00,74.0,72.0,-100.00,WSW,256,3.0,7.0,93,0.00,,,0.00,0.000000,,2013-07-21 02:05:00,
2013-07-20 22:47:00,74.0,72.0,-100.00,WSW,256,3.0,7.0,93,0.00,,,0.00,0.000000,,2013-07-21 02:47:00,
2013-07-20 22:58:00,74.0,72.0,-100.00,WSW,256,3.0,7.0,93,0.00,,,0.00,0.000000,,2013-07-21 02:58:00,
2013-07-20 23:37:00,74.0,73.0,-100.00,SW,231,2.0,4.0,96,0.00,,,0.00,0.000000,,2013-07-21 03:37:00,
2013-07-20 23:47:00,74.0,73.0,-100.00,SW,231,2.0,4.0,96,0.00,,,0.00,0.000000,,2013-07-21 03:47:00,